Time;durP1;ratioP1;P1;durP2;ratioP2;P2;SDS_P1;SDS_P2;PMS_P1;PMS_P2;Temp;Humidity;BMP_temperature;BMP_pressure;BME280_temperature;BME280_humidity;BME280_pressure;Samples;Min_cycle;Max_cycle;Signal;HPM_P1;HPM_P2
2021/03/13 00:00:38;;;;;;;2.60;1.17;;;;;;;4.96;83.27;99308.88;4998472;28;20041;-88
2021/03/13 00:03:05;;;;;;;1.63;1.00;;;;;;;4.87;83.65;99304.69;4994745;28;20139;-87
2021/03/13 00:05:37;;;;;;;2.77;1.70;;;;;;;4.83;84.12;99300.41;4984965;28;20140;-87
2021/03/13 00:08:11;;;;;;;1.90;1.40;;;;;;;4.74;84.39;99300.59;4998992;28;20049;-87
2021/03/13 00:10:38;;;;;;;2.95;1.40;;;;;;;4.78;84.28;99295.25;4974966;28;20045;-87
2021/03/13 00:13:05;;;;;;;3.20;1.20;;;;;;;4.73;84.89;99294.50;4998362;28;20418;-87
2021/03/13 00:15:32;;;;;;;3.00;1.20;;;;;;;4.72;85.04;99290.16;4994655;28;20048;-89
2021/03/13 00:18:00;;;;;;;3.80;1.80;;;;;;;4.72;84.88;99294.53;4993374;28;20419;-88
2021/03/13 00:20:27;;;;;;;3.83;1.20;;;;;;;4.68;84.95;99293.69;4997667;28;20038;-87
2021/03/13 00:22:54;;;;;;;1.83;1.33;;;;;;;4.69;85.26;99294.56;4990575;28;20495;-87
2021/03/13 00:25:22;;;;;;;2.80;1.70;;;;;;;4.67;85.92;99293.75;4997736;28;20095;-88
2021/03/13 00:27:48;;;;;;;5.07;1.57;;;;;;;4.68;85.57;99292.84;5018204;28;20084;-87
2021/03/13 00:30:24;;;;;;;2.37;1.50;;;;;;;4.68;85.67;99303.31;4994580;28;20048;-88
2021/03/13 00:32:52;;;;;;;1.47;1.07;;;;;;;4.64;86.13;99294.66;5019607;28;20053;-86
2021/03/13 00:35:20;;;;;;;2.00;1.30;;;;;;;4.67;86.04;99307.69;4994741;28;20038;-88
2021/03/13 00:37:48;;;;;;;1.80;1.20;;;;;;;4.69;86.13;99312.88;4997769;28;21481;-88
2021/03/13 00:40:15;;;;;;;2.10;1.30;;;;;;;4.66;86.40;99311.19;5003730;28;20045;-88
2021/03/13 00:42:42;;;;;;;3.53;1.40;;;;;;;4.67;86.31;99325.13;4987363;28;20064;-87
2021/03/13 00:45:11;;;;;;;2.33;1.40;;;;;;;4.65;86.69;99321.69;5008365;28;20133;-88
2021/03/13 00:47:37;;;;;;;2.00;1.20;;;;;;;4.64;86.97;99319.97;5006694;28;20068;-87
2021/03/13 00:50:05;;;;;;;1.73;1.10;;;;;;;4.63;87.29;99313.88;4987752;28;20037;-88
2021/03/13 00:52:32;;;;;;;2.17;1.40;;;;;;;4.61;87.51;99312.16;5024773;28;20064;-87
2021/03/13 00:54:59;;;;;;;4.07;1.40;;;;;;;4.53;87.40;99307.91;5003668;28;20045;-87
2021/03/13 00:57:25;;;;;;;2.80;1.20;;;;;;;4.53;87.64;99312.28;4982483;28;20037;-88
2021/03/13 00:59:51;;;;;;;1.90;1.60;;;;;;;4.51;87.81;99314.94;4996232;28;20411;-87
2021/03/13 01:02:18;;;;;;;2.93;1.40;;;;;;;4.43;88.41;99324.66;4999477;28;20244;-89
2021/03/13 01:04:45;;;;;;;2.07;1.20;;;;;;;4.44;88.46;99310.69;5014918;28;20507;-87
2021/03/13 01:07:11;;;;;;;2.00;1.40;;;;;;;4.41;88.57;99325.59;4990350;28;20034;-87
2021/03/13 01:09:37;;;;;;;3.83;2.20;;;;;;;4.35;88.77;99312.59;5018452;28;20061;-88
2021/03/13 01:12:04;;;;;;;3.10;1.40;;;;;;;4.31;89.21;99322.25;4984335;28;20095;-87
2021/03/13 01:14:31;;;;;;;2.37;1.50;;;;;;;4.31;89.29;99330.09;5015372;28;20212;-88
2021/03/13 01:16:57;;;;;;;5.23;1.83;;;;;;;4.32;89.71;99330.97;5006815;28;20037;-88
2021/03/13 01:19:23;;;;;;;3.07;1.30;;;;;;;4.30;89.74;99323.16;4986574;28;20491;-86
2021/03/13 01:21:49;;;;;;;2.27;1.47;;;;;;;4.30;89.47;99327.53;5007883;28;20049;-87
2021/03/13 01:24:16;;;;;;;2.33;1.53;;;;;;;4.27;89.70;99330.16;5013351;28;20049;-88
2021/03/13 01:26:42;;;;;;;2.53;1.80;;;;;;;4.27;89.29;99325.81;4983539;28;20041;-87
2021/03/13 01:29:09;;;;;;;13.73;2.40;;;;;;;4.27;89.61;99327.56;4988950;28;20044;-86
2021/03/13 01:31:35;;;;;;;2.10;1.50;;;;;;;4.22;89.71;99328.50;4999373;28;20048;-88
2021/03/13 01:34:02;;;;;;;3.40;1.50;;;;;;;4.24;90.10;99328.47;4997055;28;20060;-88
2021/03/13 01:36:28;;;;;;;2.00;1.40;;;;;;;4.16;89.86;99325.97;4995413;28;20228;-88
2021/03/13 01:38:54;;;;;;;3.13;1.80;;;;;;;4.07;90.53;99326.13;5001875;28;20056;-89
2021/03/13 01:41:21;;;;;;;2.60;1.90;;;;;;;4.02;91.08;99317.47;5004128;28;20048;-87
2021/03/13 01:43:48;;;;;;;3.53;2.00;;;;;;;3.97;91.41;99319.31;4996674;28;20080;-87
2021/03/13 01:46:14;;;;;;;5.03;2.00;;;;;;;3.87;91.83;99326.44;5014833;28;20748;-88
2021/03/13 01:48:49;;;;;;;2.20;1.50;;;;;;;3.85;92.48;99329.94;5002937;28;20220;-88
2021/03/13 01:51:15;;;;;;;;;;;;;;;3.82;92.71;99320.41;5001595;28;20044;-88
2021/03/13 01:53:43;;;;;;;3.20;1.50;;;;;;;3.81;92.87;99326.53;5000790;28;19928;-88
2021/03/13 01:56:09;;;;;;;2.73;1.90;;;;;;;3.79;92.87;99327.44;4997353;28;20037;-89
2021/03/13 01:58:35;;;;;;;3.53;1.80;;;;;;;3.75;93.28;99329.22;4991987;28;20038;-87
2021/03/13 02:01:18;;;;;;;4.40;2.03;;;;;;;3.80;93.02;99324.81;4989676;28;20120;-88
2021/03/13 02:03:44;;;;;;;2.97;1.80;;;;;;;3.82;92.80;99325.63;5004807;28;20047;-88
2021/03/13 02:06:11;;;;;;;3.53;2.27;;;;;;;3.79;92.96;99323.06;4993212;28;20519;-87
2021/03/13 02:08:44;;;;;;;5.40;2.53;;;;;;;3.82;92.72;99315.19;5018447;28;20498;-87
2021/03/13 02:11:17;;;;;;;3.97;2.23;;;;;;;3.82;92.72;99307.34;4994984;28;20507;-88
2021/03/13 02:13:46;;;;;;;2.93;2.00;;;;;;;3.78;93.26;99300.44;5005173;28;20124;-87
2021/03/13 02:16:28;;;;;;;3.43;2.27;;;;;;;3.71;94.36;99298.81;5010083;28;20045;-88
2021/03/13 02:19:13;;;;;;;3.77;2.23;;;;;;;3.79;93.97;99311.75;4990421;28;20320;-88
2021/03/13 02:21:44;;;;;;;3.30;2.30;;;;;;;3.79;94.91;99304.78;5012587;28;20084;-88
2021/03/13 02:24:22;;;;;;;4.40;2.40;;;;;;;3.75;95.21;99297.00;4996231;28;20048;-87
2021/03/13 02:27:10;;;;;;;2.63;2.03;;;;;;;3.73;95.30;99291.81;5006092;28;20041;-88
2021/03/13 02:29:58;;;;;;;5.87;2.17;;;;;;;3.75;94.63;99300.47;4999360;28;20068;-88
2021/03/13 02:32:49;;;;;;;4.07;2.47;;;;;;;3.65;95.46;99306.72;5019639;28;20049;-88
2021/03/13 02:35:26;;;;;;;3.20;2.00;;;;;;;3.61;96.21;99315.47;5016605;28;20071;-88
2021/03/13 02:37:55;;;;;;;4.20;2.33;;;;;;;3.60;96.19;99313.75;4996650;28;20041;-88
2021/03/13 02:40:24;;;;;;;3.50;2.20;;;;;;;3.62;96.58;99323.31;4993945;28;20050;-88
2021/03/13 02:43:10;;;;;;;4.47;2.33;;;;;;;3.66;96.02;99313.69;5000194;28;20140;-87
2021/03/13 02:45:38;;;;;;;4.10;2.53;;;;;;;3.64;96.25;99307.63;4990520;28;20418;-87
2021/03/13 02:48:08;;;;;;;3.63;2.73;;;;;;;3.67;95.30;99312.78;5015951;28;21492;-88
2021/03/13 02:50:36;;;;;;;3.73;2.73;;;;;;;3.61;95.43;99312.88;4981700;28;20430;-88
2021/03/13 02:53:03;;;;;;;5.23;2.93;;;;;;;3.55;96.29;99305.13;4994559;28;20053;-88
2021/03/13 02:55:30;;;;;;;3.93;3.00;;;;;;;3.45;96.74;99303.50;5010359;28;20376;-88
2021/03/13 02:57:58;;;;;;;4.73;3.43;;;;;;;3.48;96.56;99313.94;4976677;28;20053;-88
2021/03/13 03:00:26;;;;;;;6.57;3.20;;;;;;;3.42;97.54;99293.97;4993837;28;20045;-88
2021/03/13 03:02:58;;;;;;;4.77;3.30;;;;;;;3.41;97.35;99297.47;5015110;23;20055;-68
2021/03/13 03:05:26;;;;;;;8.03;3.63;;;;;;;3.42;98.08;99308.78;5053074;28;20041;-68
2021/03/13 03:07:54;;;;;;;4.70;3.67;;;;;;;3.43;97.86;99302.69;4996758;28;20508;-68
2021/03/13 03:10:22;;;;;;;8.53;3.80;;;;;;;3.36;98.77;99305.41;5041792;28;20044;-68
2021/03/13 03:12:49;;;;;;;6.37;4.00;;;;;;;3.34;99.18;99301.06;5025748;28;20090;-68
2021/03/13 03:15:16;;;;;;;6.40;4.03;;;;;;;3.37;98.67;99306.25;5048084;28;20044;-67
2021/03/13 03:17:44;;;;;;;6.30;4.30;;;;;;;3.42;99.24;99306.19;5027899;28;20040;-67
2021/03/13 03:20:11;;;;;;;6.10;4.10;;;;;;;3.46;99.00;99307.88;5047326;28;20483;-67
2021/03/13 03:22:38;;;;;;;6.73;4.13;;;;;;;3.48;99.41;99311.31;5049591;28;20051;-67
2021/03/13 03:25:07;;;;;;;6.33;3.77;;;;;;;3.60;97.96;99312.00;5046907;28;20045;-67
2021/03/13 03:27:34;;;;;;;6.87;3.73;;;;;;;3.59;98.15;99302.44;5066795;28;20562;-67
2021/03/13 03:30:03;;;;;;;7.23;3.97;;;;;;;3.66;97.96;99308.44;5046303;28;20058;-67
2021/03/13 03:32:29;;;;;;;7.00;4.27;;;;;;;3.72;97.23;99313.59;5058907;28;20256;-67
2021/03/13 03:34:56;;;;;;;10.57;4.20;;;;;;;3.76;97.22;99319.63;5062957;28;20064;-67
2021/03/13 03:37:22;;;;;;;8.43;4.57;;;;;;;3.80;97.06;99309.13;5053079;28;20040;-67
2021/03/13 03:39:48;;;;;;;6.03;3.93;;;;;;;3.80;96.78;99296.06;5038623;28;20039;-67
2021/03/13 03:42:15;;;;;;;7.57;4.27;;;;;;;3.78;96.86;99296.94;5025944;28;20079;-67
2021/03/13 03:44:45;;;;;;;9.97;5.43;;;;;;;3.86;95.98;99289.88;5057926;28;20028;-67
2021/03/13 03:47:11;;;;;;;6.57;4.60;;;;;;;3.94;95.33;99285.38;5029952;28;20040;-67
2021/03/13 03:49:39;;;;;;;10.30;5.37;;;;;;;3.93;95.37;99289.75;5046323;28;20118;-67
2021/03/13 03:52:05;;;;;;;7.20;4.30;;;;;;;3.94;95.09;99296.69;5066650;28;20041;-68
2021/03/13 03:54:35;;;;;;;8.30;4.33;;;;;;;3.92;95.05;99301.09;5027025;28;20834;-67
2021/03/13 03:57:02;;;;;;;7.70;4.90;;;;;;;3.99;94.33;99298.38;5031113;28;20036;-67
2021/03/13 03:59:28;;;;;;;8.87;4.60;;;;;;;3.97;94.59;99302.78;5029008;28;20040;-67
2021/03/13 04:01:55;;;;;;;8.47;4.50;;;;;;;3.95;94.41;99302.78;5046935;28;20029;-67
2021/03/13 04:04:22;;;;;;;9.87;4.97;;;;;;;4.01;94.14;99301.84;5048494;28;20040;-67
2021/03/13 04:06:50;;;;;;;9.63;4.60;;;;;;;4.00;93.88;99313.19;5061531;28;20501;-68
2021/03/13 04:09:23;;;;;;;10.33;4.30;;;;;;;3.98;95.01;99310.59;5052446;28;20048;-68
2021/03/13 04:11:50;;;;;;;8.57;5.10;;;;;;;3.98;94.62;99307.97;5032824;28;20067;-68
2021/03/13 04:14:17;;;;;;;12.90;5.40;;;;;;;3.84;95.39;99321.25;5070400;28;20067;-67
2021/03/13 04:16:43;;;;;;;7.70;3.97;;;;;;;3.75;96.72;99318.75;5038444;28;20486;-68
2021/03/13 04:19:10;;;;;;;6.80;4.27;;;;;;;3.67;97.79;99324.09;5035248;28;20496;-68
2021/03/13 04:21:37;;;;;;;8.00;5.80;;;;;;;3.62;97.99;99320.72;5071016;28;20601;-67
2021/03/13 04:24:04;;;;;;;9.40;4.13;;;;;;;3.59;98.10;99325.09;5047950;28;20052;-67
2021/03/13 04:26:30;;;;;;;7.13;4.43;;;;;;;3.53;98.67;99319.94;5049144;28;20086;-67
2021/03/13 04:28:57;;;;;;;7.13;4.87;;;;;;;3.51;99.59;99324.31;5035471;28;20040;-67
2021/03/13 04:31:27;;;;;;;6.87;4.03;;;;;;;3.48;100.00;99308.72;5050599;28;20194;-67
2021/03/13 04:33:55;;;;;;;7.83;4.63;;;;;;;3.46;100.00;99316.56;5068807;28;20064;-67
2021/03/13 04:36:21;;;;;;;8.47;4.03;;;;;;;3.44;100.00;99313.09;5033280;28;20516;-67
2021/03/13 04:38:48;;;;;;;7.50;4.07;;;;;;;3.46;100.00;99310.50;5050728;28;20062;-67
2021/03/13 04:41:14;;;;;;;8.43;4.47;;;;;;;3.42;100.00;99308.78;5061870;28;20040;-67
2021/03/13 04:43:42;;;;;;;9.17;4.53;;;;;;;3.38;100.00;99314.06;5019359;28;20135;-67
2021/03/13 04:46:08;;;;;;;7.60;4.10;;;;;;;3.36;100.00;99313.22;5067886;28;20116;-67
2021/03/13 04:48:35;;;;;;;6.80;4.37;;;;;;;3.43;100.00;99313.13;5050008;28;20064;-67
2021/03/13 04:51:05;;;;;;;7.80;3.67;;;;;;;3.46;100.00;99318.31;5067407;28;20044;-67
2021/03/13 04:53:31;;;;;;;5.87;3.80;;;;;;;3.43;100.00;99313.97;5064301;28;20037;-67
2021/03/13 04:55:57;;;;;;;8.97;5.07;;;;;;;3.38;100.00;99308.84;5028439;28;20044;-67
2021/03/13 04:58:24;;;;;;;8.90;4.90;;;;;;;3.34;100.00;99319.31;5047896;28;20032;-67
2021/03/13 05:00:53;;;;;;;8.47;4.03;;;;;;;3.36;100.00;99308.00;5044777;28;20102;-67
2021/03/13 05:03:37;;;;;;;6.53;3.60;;;;;;;3.35;100.00;99315.81;5036750;28;20509;-66
2021/03/13 05:06:04;;;;;;;7.07;3.17;;;;;;;3.36;100.00;99304.50;5067168;28;20043;-67
2021/03/13 05:08:30;;;;;;;8.70;3.63;;;;;;;3.36;100.00;99301.88;5030860;28;20496;-67
2021/03/13 05:10:56;;;;;;;5.43;3.27;;;;;;;3.38;100.00;99297.53;5041780;28;20896;-67
2021/03/13 05:13:22;;;;;;;5.93;3.40;;;;;;;3.42;100.00;99299.19;5035347;28;20041;-67
2021/03/13 05:15:48;;;;;;;6.30;3.27;;;;;;;3.34;100.00;99303.66;5051769;28;20059;-67
2021/03/13 05:18:14;;;;;;;5.27;3.30;;;;;;;3.34;100.00;99309.75;5049563;28;20459;-67
2021/03/13 05:20:41;;;;;;;4.90;2.80;;;;;;;3.37;100.00;99307.13;5072609;28;20109;-66
2021/03/13 05:23:07;;;;;;;4.00;2.80;;;;;;;3.50;99.50;99301.72;5033291;28;20040;-67
2021/03/13 05:25:33;;;;;;;6.57;3.77;;;;;;;3.41;99.24;99294.00;5049817;28;20044;-67
2021/03/13 05:27:59;;;;;;;4.73;2.63;;;;;;;3.26;99.83;99290.72;5011106;28;20043;-67
2021/03/13 05:30:25;;;;;;;7.57;3.10;;;;;;;3.19;100.00;99291.66;5028900;28;20049;-67
2021/03/13 05:32:51;;;;;;;4.83;3.13;;;;;;;3.13;100.00;99285.69;5056174;28;20037;-67
2021/03/13 05:35:18;;;;;;;5.63;3.00;;;;;;;3.09;100.00;99279.63;5033375;28;20044;-67
2021/03/13 05:37:44;;;;;;;5.40;2.97;;;;;;;2.98;100.00;99284.97;5047423;28;20039;-67
2021/03/13 05:40:10;;;;;;;4.60;2.73;;;;;;;3.00;100.00;99275.38;5030588;28;20568;-67
2021/03/13 05:42:38;;;;;;;4.53;2.80;;;;;;;2.91;100.00;99282.44;5049500;28;20048;-68
2021/03/13 05:45:06;;;;;;;5.03;3.00;;;;;;;2.93;100.00;99270.25;5073171;28;20055;-68
2021/03/13 05:47:34;;;;;;;6.03;2.80;;;;;;;2.98;100.00;99265.84;5060320;28;20104;-69
2021/03/13 05:50:07;;;;;;;4.90;2.90;;;;;;;2.90;100.00;99262.47;5045172;28;20037;-68
2021/03/13 05:52:35;;;;;;;6.87;2.90;;;;;;;2.93;100.00;99263.28;5056687;28;20094;-68
2021/03/13 05:55:03;;;;;;;5.87;3.17;;;;;;;2.96;100.00;99267.63;5049937;28;20029;-68
2021/03/13 05:57:30;;;;;;;5.17;3.03;;;;;;;3.02;100.00;99254.47;5038969;28;20041;-68
2021/03/13 05:59:56;;;;;;;9.53;2.97;;;;;;;3.02;100.00;99254.47;5026974;28;20072;-68
2021/03/13 06:02:23;;;;;;;5.57;2.60;;;;;;;3.07;100.00;99250.09;5046994;28;20048;-68
2021/03/13 06:04:50;;;;;;;3.67;2.47;;;;;;;3.18;99.13;99245.56;5048241;28;20055;-68
2021/03/13 06:07:21;;;;;;;4.60;2.83;;;;;;;3.28;98.88;99244.59;5046334;28;20066;-68
2021/03/13 06:09:52;;;;;;;4.33;2.97;;;;;;;3.42;97.82;99247.00;5025134;28;20049;-68
2021/03/13 06:12:19;;;;;;;4.97;2.47;;;;;;;3.54;97.27;99238.13;5046595;28;20033;-68
2021/03/13 06:14:49;;;;;;;3.83;2.40;;;;;;;3.66;96.42;99237.94;5039405;28;20058;-68
2021/03/13 06:17:16;;;;;;;3.63;2.47;;;;;;;3.77;95.07;99227.31;5056884;28;20047;-68
2021/03/13 06:19:54;;;;;;;5.60;2.70;;;;;;;3.81;95.08;99224.66;5035563;28;20051;-68
2021/03/13 06:22:41;;;;;;;4.33;2.43;;;;;;;3.85;94.49;99226.31;5024896;28;20041;-68
2021/03/13 06:25:14;;;;;;;5.17;2.20;;;;;;;3.90;93.71;99228.84;5044888;28;20683;-68
2021/03/13 06:27:41;;;;;;;4.80;2.40;;;;;;;3.91;93.79;99218.38;5047447;28;20044;-69
2021/03/13 06:30:09;;;;;;;3.43;1.90;;;;;;;3.96;93.31;99207.84;5046485;28;20037;-68
2021/03/13 06:32:36;;;;;;;2.67;1.83;;;;;;;4.03;93.05;99211.19;5067821;28;20036;-68
2021/03/13 06:35:22;;;;;;;3.70;1.90;;;;;;;4.02;92.82;99207.72;5045179;28;20071;-68
2021/03/13 06:37:49;;;;;;;5.33;2.20;;;;;;;4.03;92.50;99206.84;5047466;28;20094;-68
2021/03/13 06:40:26;;;;;;;3.07;1.80;;;;;;;4.03;92.53;99198.13;5043933;28;20052;-68
2021/03/13 06:42:53;;;;;;;3.57;1.70;;;;;;;4.04;92.30;99200.75;5047790;28;20028;-68
2021/03/13 06:45:19;;;;;;;3.23;1.80;;;;;;;4.12;91.24;99200.59;5064984;28;20032;-69
2021/03/13 06:47:46;;;;;;;3.13;1.70;;;;;;;4.07;92.36;99203.31;5046271;28;20043;-68
2021/03/13 06:50:26;;;;;;;3.33;1.80;;;;;;;4.04;92.68;99189.44;5061191;28;20054;-68
2021/03/13 06:53:07;;;;;;;3.30;1.77;;;;;;;4.07;92.88;99199.81;5051279;28;20043;-68
2021/03/13 06:55:33;;;;;;;8.30;3.60;;;;;;;4.08;92.67;99186.72;5048707;28;20413;-68
2021/03/13 06:58:09;;;;;;;2.80;2.00;;;;;;;4.18;92.45;99187.41;5030922;28;20102;-68
2021/03/13 07:00:41;;;;;;;4.80;2.20;;;;;;;4.23;92.42;99185.59;5038867;28;20045;-68
2021/03/13 07:03:12;;;;;;;3.50;1.70;;;;;;;4.37;91.18;99175.75;5048081;28;20067;-68
2021/03/13 07:05:40;;;;;;;3.13;1.60;;;;;;;4.45;91.22;99170.34;5010957;28;20136;-68
2021/03/13 07:08:22;;;;;;;4.83;2.40;;;;;;;4.45;90.77;99170.34;5042013;28;20139;-68
2021/03/13 07:10:48;;;;;;;3.93;1.70;;;;;;;4.62;89.84;99165.63;5030408;28;20044;-68
2021/03/13 07:13:33;;;;;;;2.73;1.90;;;;;;;4.80;88.93;99164.44;5046911;28;20118;-68
2021/03/13 07:16:28;;;;;;;3.40;1.67;;;;;;;5.05;87.49;99164.75;5007592;28;20041;-68
2021/03/13 07:19:06;;;;;;;3.10;1.60;;;;;;;5.19;86.73;99159.19;5022003;28;20052;-68
2021/03/13 07:21:34;;;;;;;4.53;2.57;;;;;;;5.41;85.84;99159.56;5045307;28;20638;-68
2021/03/13 07:24:03;;;;;;;5.33;1.70;;;;;;;5.49;84.58;99158.50;5045873;28;20574;-68
2021/03/13 07:26:39;;;;;;;2.50;1.67;;;;;;;5.69;83.97;99159.75;5024415;28;20541;-68
2021/03/13 07:29:06;;;;;;;3.17;1.70;;;;;;;5.91;83.20;99158.38;5045199;28;20099;-68
2021/03/13 07:31:56;;;;;;;3.40;1.47;;;;;;;5.94;82.30;99150.41;5027284;28;20041;-68
2021/03/13 07:34:24;;;;;;;3.03;1.80;;;;;;;5.97;81.60;99146.84;5028398;28;20045;-68
2021/03/13 07:36:51;;;;;;;2.87;1.80;;;;;;;6.06;80.54;99144.00;5023188;28;20087;-68
2021/03/13 07:39:19;;;;;;;3.87;1.77;;;;;;;6.17;80.23;99150.69;5020093;28;20053;-68
2021/03/13 07:41:53;;;;;;;2.20;1.70;;;;;;;6.15;80.37;99138.53;4999242;28;20781;-68
2021/03/13 07:44:19;;;;;;;2.53;1.90;;;;;;;6.26;80.04;99144.31;5025156;28;20083;-68
2021/03/13 07:46:45;;;;;;;3.23;1.80;;;;;;;6.19;79.79;99135.75;5007661;28;20037;-69
2021/03/13 07:49:12;;;;;;;2.30;1.73;;;;;;;6.33;79.44;99129.28;5020622;28;20037;-68
2021/03/13 07:51:38;;;;;;;3.17;1.97;;;;;;;6.52;78.68;99124.38;5040606;28;20048;-69
2021/03/13 07:54:07;;;;;;;3.20;1.60;;;;;;;6.62;77.95;99126.69;5026575;28;20044;-68
2021/03/13 07:56:34;;;;;;;3.40;1.90;;;;;;;6.69;77.18;99115.09;5012314;28;20621;-68
2021/03/13 07:59:00;;;;;;;1.97;1.60;;;;;;;6.72;77.33;99128.13;5028028;28;20037;-69
2021/03/13 08:01:58;;;;;;;2.57;2.00;;;;;;;6.62;76.60;99110.94;5025241;28;20107;-69
2021/03/13 08:04:57;;;;;;;4.13;1.80;;;;;;;6.50;77.87;99100.81;5010823;28;20036;-71
2021/03/13 08:07:25;;;;;;;2.80;1.90;;;;;;;6.53;78.00;99107.72;5019823;28;20699;-69
2021/03/13 08:09:51;;;;;;;2.13;1.60;;;;;;;6.35;77.88;99098.63;5025970;28;20453;-68
2021/03/13 08:12:37;;;;;;;4.07;2.07;;;;;;;6.34;79.22;99091.66;5044110;28;20221;-68
2021/03/13 08:15:29;;;;;;;2.77;1.90;;;;;;;6.34;79.40;99091.66;5026047;28;20040;-69
2021/03/13 08:17:55;;;;;;;2.70;1.93;;;;;;;6.41;79.80;99085.34;5018417;28;20107;-69
2021/03/13 08:20:33;;;;;;;4.57;2.07;;;;;;;6.32;81.52;99077.72;5028261;28;20068;-69
2021/03/13 08:23:25;;;;;;;3.93;2.00;;;;;;;6.17;81.89;99081.63;5039368;28;20045;-69
2021/03/13 08:25:53;;;;;;;3.63;2.03;;;;;;;6.18;83.37;99072.88;5007769;28;20053;-69
2021/03/13 08:28:50;;;;;;;4.13;2.40;;;;;;;6.13;83.74;99066.88;5023070;28;20041;-69
2021/03/13 08:31:25;;;;;;;3.57;2.63;;;;;;;6.07;85.60;99067.06;5044920;28;20091;-69
2021/03/13 08:33:53;;;;;;;3.53;2.40;;;;;;;6.12;86.00;99054.69;5046193;28;20066;-69
2021/03/13 08:36:22;;;;;;;3.70;2.20;;;;;;;6.07;86.64;99056.59;5027332;28;20045;-69
2021/03/13 08:39:01;;;;;;;4.43;2.63;;;;;;;6.02;88.18;99055.84;5043938;28;20124;-69
2021/03/13 08:41:42;;;;;;;3.50;2.57;;;;;;;6.12;89.26;99049.44;5027383;28;20413;-69
2021/03/13 08:44:16;;;;;;;3.57;2.10;;;;;;;6.02;88.15;99051.47;5044787;28;20052;-69
2021/03/13 08:47:10;;;;;;;4.03;2.50;;;;;;;5.85;89.77;99045.78;5044036;28;20059;-69
2021/03/13 08:49:46;;;;;;;4.28;2.80;;;;;;;5.88;91.17;99046.56;5024525;28;20048;-70
2021/03/13 08:52:20;;;;;;;6.57;3.43;;;;;;;5.58;92.39;99043.00;5011453;28;20071;-70
2021/03/13 08:54:54;;;;;;;5.43;2.80;;;;;;;5.41;94.49;99032.09;5045285;28;20041;-67
2021/03/13 08:57:26;;;;;;;4.93;2.83;;;;;;;5.46;94.42;99018.88;5044625;28;20029;-66
2021/03/13 08:59:55;;;;;;;3.67;2.40;;;;;;;5.51;95.33;99011.78;5045591;28;20379;-67
2021/03/13 09:02:25;;;;;;;3.70;3.30;;;;;;;5.45;95.31;99010.16;5034185;28;20131;-68
2021/03/13 09:04:55;;;;;;;3.73;2.73;;;;;;;5.42;96.29;99012.00;5048680;28;20052;-67
2021/03/13 09:07:23;;;;;;;6.13;2.67;;;;;;;5.26;98.08;98999.31;5047832;28;20630;-68
2021/03/13 09:09:50;;;;;;;5.20;3.30;;;;;;;5.22;99.74;99004.69;5049565;28;20338;-68
2021/03/13 09:12:19;;;;;;;5.67;3.47;;;;;;;5.16;100.00;99002.22;5030876;28;20123;-68
2021/03/13 09:14:50;;;;;;;3.87;3.20;;;;;;;5.24;99.46;98993.25;5062355;28;20086;-68
2021/03/13 09:17:19;;;;;;;5.00;3.33;;;;;;;5.16;100.00;98995.22;5049434;28;20086;-68
2021/03/13 09:19:48;;;;;;;4.10;3.60;;;;;;;5.18;100.00;98980.31;5033959;28;21801;-68
2021/03/13 09:22:15;;;;;;;4.13;3.23;;;;;;;5.07;100.00;98970.13;5050307;28;20048;-68
2021/03/13 09:24:42;;;;;;;4.60;3.20;;;;;;;5.03;100.00;98952.75;5061176;22;20048;-72
2021/03/13 09:27:09;;;;;;;4.40;2.70;;;;;;;5.14;100.00;98955.13;5028769;28;20048;-72
2021/03/13 09:29:42;;;;;;;5.43;3.40;;;;;;;5.04;100.00;98940.53;5030609;28;20056;-72
2021/03/13 09:32:13;;;;;;;6.00;3.30;;;;;;;5.08;100.00;98929.97;5029375;28;20041;-72
2021/03/13 09:34:40;;;;;;;4.73;2.97;;;;;;;5.13;100.00;98923.72;5015262;28;20037;-72
2021/03/13 09:37:16;;;;;;;5.20;3.47;;;;;;;5.00;100.00;98925.81;5032346;28;20041;-72
2021/03/13 09:39:47;;;;;;;5.05;3.85;;;;;;;4.97;100.00;98913.69;5010053;28;20445;-72
2021/03/13 09:42:26;;;;;;;8.37;3.60;;;;;;;4.91;100.00;98916.44;5032226;28;20460;-72
2021/03/13 09:44:52;;;;;;;6.10;3.20;;;;;;;4.93;100.00;98901.56;5014408;28;20041;-72
2021/03/13 09:47:28;;;;;;;4.97;3.30;;;;;;;4.89;100.00;98894.69;5031330;28;20059;-72
2021/03/13 09:49:58;;;;;;;5.17;3.37;;;;;;;4.90;100.00;98883.34;5052021;28;20047;-73
2021/03/13 09:52:36;;;;;;;5.23;3.83;;;;;;;4.82;100.00;98892.28;5049221;28;20095;-73
2021/03/13 09:55:08;;;;;;;5.10;2.90;;;;;;;4.79;100.00;98890.56;5042979;28;20059;-73
2021/03/13 09:57:35;;;;;;;6.97;3.60;;;;;;;4.76;100.00;98886.28;5030192;28;20090;-74
2021/03/13 10:00:10;;;;;;;5.27;3.60;;;;;;;4.66;100.00;98882.19;5012621;28;20051;-73
2021/03/13 10:02:38;;;;;;;6.17;3.73;;;;;;;4.76;100.00;98873.22;5031138;28;20437;-74
2021/03/13 10:05:08;;;;;;;4.63;3.17;;;;;;;4.75;100.00;98863.66;5014335;28;20049;-74
2021/03/13 10:07:40;;;;;;;5.00;3.07;;;;;;;4.77;100.00;98851.38;5039295;28;20582;-74
2021/03/13 10:10:08;;;;;;;6.87;3.57;;;;;;;4.84;100.00;98844.25;5016147;28;20466;-73
2021/03/13 10:12:36;;;;;;;4.63;3.30;;;;;;;4.84;100.00;98830.31;4991913;28;20098;-74
2021/03/13 10:15:12;;;;;;;4.37;3.10;;;;;;;4.84;100.00;98818.06;5047557;28;20083;-74
2021/03/13 10:17:49;;;;;;;4.17;3.20;;;;;;;4.89;100.00;98818.81;5029883;28;20033;-73
2021/03/13 10:20:16;;;;;;;4.63;2.70;;;;;;;4.90;100.00;98806.59;5030164;28;20065;-74
2021/03/13 10:22:42;;;;;;;4.60;3.40;;;;;;;4.92;100.00;98800.41;5014945;28;20653;-73
2021/03/13 10:25:09;;;;;;;3.83;3.10;;;;;;;4.89;100.00;98803.13;5012890;28;20071;-73
2021/03/13 10:27:35;;;;;;;4.43;3.40;;;;;;;4.97;100.00;98793.31;5015209;28;20037;-74
2021/03/13 10:30:05;;;;;;;24.23;14.90;;;;;;;4.96;100.00;98785.47;5028394;28;20037;-74
2021/03/13 10:32:33;;;;;;;4.53;3.30;;;;;;;4.95;100.00;98787.22;5038676;28;20485;-74
2021/03/13 10:35:07;;;;;;;3.90;3.00;;;;;;;4.99;100.00;98782.78;5014128;28;20041;-74
2021/03/13 10:37:51;;;;;;;6.80;3.47;;;;;;;4.97;100.00;98781.97;5030008;28;20037;-74
2021/03/13 10:40:38;;;;;;;4.60;3.47;;;;;;;5.02;100.00;98760.00;5025402;28;20091;-75
2021/03/13 10:43:12;;;;;;;4.43;3.20;;;;;;;5.02;100.00;98740.81;5042925;28;20083;-74
2021/03/13 10:45:39;;;;;;;5.68;3.22;;;;;;;5.07;100.00;98757.25;5029056;28;20144;-74
2021/03/13 10:48:12;;;;;;;3.60;2.67;;;;;;;5.02;100.00;98749.53;5032060;28;20826;-74
2021/03/13 10:50:41;;;;;;;5.93;3.93;;;;;;;5.03;100.00;98738.16;5029569;28;20053;-74
2021/03/13 10:53:30;;;;;;;4.83;3.40;;;;;;;5.13;100.00;98735.25;5007974;28;20498;-74
2021/03/13 10:56:09;;;;;;;5.37;3.83;;;;;;;5.05;100.00;98732.91;5029221;28;20107;-75
2021/03/13 10:58:36;;;;;;;5.13;3.43;;;;;;;5.03;100.00;98717.22;5011091;28;20056;-74
2021/03/13 11:01:04;;;;;;;4.53;3.00;;;;;;;5.10;100.00;98725.75;5046870;28;20091;-74
2021/03/13 11:03:31;;;;;;;6.63;3.00;;;;;;;5.13;100.00;98704.75;5028463;28;20490;-74
2021/03/13 11:05:58;;;;;;;4.70;3.33;;;;;;;5.23;100.00;98697.47;5028932;28;20049;-74
2021/03/13 11:08:28;;;;;;;6.30;3.83;;;;;;;5.27;100.00;98699.94;5022678;28;20029;-74
2021/03/13 11:10:55;;;;;;;5.57;3.23;;;;;;;5.31;100.00;98693.72;5009630;28;20131;-74
2021/03/13 11:13:22;;;;;;;4.60;3.00;;;;;;;5.40;100.00;98682.09;5046055;28;20045;-73
2021/03/13 11:15:48;;;;;;;4.53;2.83;;;;;;;5.48;100.00;98685.34;5012135;28;20033;-74
2021/03/13 11:18:15;;;;;;;11.70;7.10;;;;;;;5.54;100.00;98669.41;5011266;28;20551;-74
2021/03/13 11:20:42;;;;;;;13.27;9.17;;;;;;;5.65;100.00;98676.94;5027896;28;20044;-73
2021/03/13 11:23:08;;;;;;;5.97;5.40;;;;;;;5.58;100.00;98664.94;5043585;28;20235;-74
2021/03/13 11:25:35;;;;;;;7.93;3.90;;;;;;;5.63;100.00;98663.00;5035291;28;20028;-73
2021/03/13 11:28:02;;;;;;;3.87;2.97;;;;;;;5.71;100.00;98662.75;5040659;28;20098;-73
2021/03/13 11:30:29;;;;;;;4.10;2.77;;;;;;;5.80;100.00;98659.84;5011737;28;20055;-74
2021/03/13 11:32:55;;;;;;;4.73;2.60;;;;;;;5.81;100.00;98651.94;5028420;28;20501;-74
2021/03/13 11:35:23;;;;;;;4.63;2.50;;;;;;;5.80;100.00;98657.22;5011021;28;20135;-73
2021/03/13 11:37:50;;;;;;;3.17;2.63;;;;;;;5.87;100.00;98656.09;5011350;28;20071;-73
2021/03/13 11:40:18;;;;;;;10.90;9.30;;;;;;;5.93;100.00;98632.34;5027056;28;20052;-74
2021/03/13 11:42:44;;;;;;;6.23;4.87;;;;;;;5.91;100.00;98637.66;5025468;28;20481;-74
2021/03/13 11:45:12;;;;;;;5.90;2.60;;;;;;;5.85;100.00;98626.47;5027170;28;20067;-73
2021/03/13 11:47:39;;;;;;;3.47;2.60;;;;;;;5.97;100.00;98618.25;5027749;28;20045;-73
2021/03/13 11:50:09;;;;;;;4.90;2.70;;;;;;;6.05;100.00;98625.81;5010164;28;20068;-74
2021/03/13 11:52:36;;;;;;;3.80;2.60;;;;;;;6.06;100.00;98619.69;5026357;28;20107;-74